Time;durP1;ratioP1;P1;durP2;ratioP2;P2;SDS_P1;SDS_P2;PMS_P1;PMS_P2;Temp;Humidity;BMP_temperature;BMP_pressure;BME280_temperature;BME280_humidity;BME280_pressure;Samples;Min_cycle;Max_cycle;Signal;HPM_P1;HPM_P2
2021/06/07 00:00:41;;;;;;;31.27;22.47;;;;;;;;;;5135006;27;20799;-75
2021/06/07 00:03:08;;;;;;;29.10;23.57;;;;;;;;;;5134472;27;20444;-74
2021/06/07 00:05:35;;;;;;;27.83;23.07;;;;;;;;;;5134485;27;20449;-75
2021/06/07 00:08:02;;;;;;;27.70;22.37;;;;;;;;;;5135003;28;20442;-75
2021/06/07 00:10:30;;;;;;;29.50;23.07;;;;;;;;;;5134693;28;20448;-76
2021/06/07 00:12:56;;;;;;;30.40;25.13;;;;;;;;;;5134362;28;20438;-77
2021/06/07 00:15:25;;;;;;;36.63;26.23;;;;;;;;;;5134374;28;20441;-75
2021/06/07 00:17:51;;;;;;;32.83;24.77;;;;;;;;;;5134624;28;20530;-77
2021/06/07 00:20:21;;;;;;;34.77;25.13;;;;;;;;;;5134722;28;20572;-77
2021/06/07 00:22:48;;;;;;;37.07;26.00;;;;;;;;;;5134519;28;20434;-78
2021/06/07 00:25:15;;;;;;;32.80;25.40;;;;;;;;;;5134254;28;20445;-78
2021/06/07 00:27:43;;;;;;;39.30;27.30;;;;;;;;;;5134625;28;20565;-78
2021/06/07 00:30:10;;;;;;;39.00;27.07;;;;;;;;;;5134519;28;20460;-77
2021/06/07 00:32:37;;;;;;;40.53;29.23;;;;;;;;;;5134460;28;20434;-76
2021/06/07 00:35:04;;;;;;;36.07;25.27;;;;;;;;;;5134689;28;20502;-77
2021/06/07 00:37:30;;;;;;;38.30;26.90;;;;;;;;;;5134132;28;20452;-76
2021/06/07 00:39:57;;;;;;;44.70;30.50;;;;;;;;;;5134016;28;20479;-76
2021/06/07 00:42:24;;;;;;;42.70;30.50;;;;;;;;;;5134339;28;20439;-76
2021/06/07 00:44:52;;;;;;;41.80;29.43;;;;;;;;;;5134345;28;20445;-76
2021/06/07 00:47:19;;;;;;;48.80;33.07;;;;;;;;;;5134759;28;20477;-76
2021/06/07 00:49:45;;;;;;;47.27;30.97;;;;;;;;;;5134311;28;20455;-76
2021/06/07 00:52:12;;;;;;;55.10;32.50;;;;;;;;;;5134282;28;20438;-76
2021/06/07 00:54:39;;;;;;;49.63;31.17;;;;;;;;;;5133977;28;20452;-76
2021/06/07 00:57:05;;;;;;;48.67;30.50;;;;;;;;;;5134303;28;20434;-75
2021/06/07 00:59:32;;;;;;;49.30;32.57;;;;;;;;;;5134153;28;20473;-76
2021/06/07 01:02:00;;;;;;;46.47;33.10;;;;;;;;;;5134175;28;20442;-75
2021/06/07 01:04:27;;;;;;;54.63;33.60;;;;;;;;;;5134556;28;20473;-76
2021/06/07 01:06:54;;;;;;;49.47;34.47;;;;;;;;;;5134028;28;20911;-75
2021/06/07 01:09:20;;;;;;;51.10;32.10;;;;;;;;;;5133797;28;20445;-76
2021/06/07 01:11:47;;;;;;;55.60;35.93;;;;;;;;;;5134079;28;20483;-75
2021/06/07 01:14:14;;;;;;;51.47;34.17;;;;;;;;;;5135835;27;20433;-77
2021/06/07 01:16:40;;;;;;;50.20;33.30;;;;;;;;;;5137876;27;20551;-75
2021/06/07 01:19:08;;;;;;;64.03;32.87;;;;;;;;;;5137731;27;20477;-76
2021/06/07 01:21:36;;;;;;;47.83;32.13;;;;;;;;;;5137727;27;20434;-76
2021/06/07 01:24:04;;;;;;;44.47;31.53;;;;;;;;;;5137718;27;20437;-75
2021/06/07 01:26:31;;;;;;;44.37;31.53;;;;;;;;;;5137452;27;20522;-74
2021/06/07 01:28:57;;;;;;;43.10;28.33;;;;;;;;;;5137357;27;20516;-75
2021/06/07 01:31:24;;;;;;;48.87;29.67;;;;;;;;;;5137602;27;20444;-75
2021/06/07 01:33:52;;;;;;;43.90;30.00;;;;;;;;;;5137528;27;20517;-75
2021/06/07 01:36:19;;;;;;;33.87;26.30;;;;;;;;;;5137153;27;20931;-75
2021/06/07 01:38:46;;;;;;;37.70;25.80;;;;;;;;;;5137350;27;20481;-78
2021/06/07 01:41:15;;;;;;;38.90;26.13;;;;;;;;;;5137373;27;20470;-77
2021/06/07 01:43:42;;;;;;;38.37;28.23;;;;;;;;;;5137004;27;20453;-76
2021/06/07 01:46:09;;;;;;;43.97;27.43;;;;;;;;;;5137693;27;20477;-75
2021/06/07 01:48:36;;;;;;;40.47;27.57;;;;;;;;;;5136898;27;20454;-78
2021/06/07 01:51:03;;;;;;;39.60;26.93;;;;;;;;;;5137340;27;20470;-76
2021/06/07 01:53:31;;;;;;;38.50;27.50;;;;;;;;;;5137163;27;20442;-76
2021/06/07 01:55:58;;;;;;;37.33;27.57;;;;;;;;;;5137048;27;20439;-77
2021/06/07 01:58:27;;;;;;;45.73;27.43;;;;;;;;;;5136630;27;20457;-76
2021/06/07 02:00:56;;;;;;;41.10;27.23;;;;;;;;;;5137017;27;20522;-76
2021/06/07 02:03:23;;;;;;;37.87;25.87;;;;;;;;;;5137154;27;20888;-76
2021/06/07 02:05:51;;;;;;;39.23;26.60;;;;;;;;;;5136943;27;20774;-76
2021/06/07 02:08:19;;;;;;;35.77;26.80;;;;;;;;;;5136511;27;20467;-76
2021/06/07 02:10:46;;;;;;;40.03;27.90;;;;;;;;;;5136823;27;20451;-76
2021/06/07 02:13:13;;;;;;;36.90;27.57;;;;;;;;;;5136760;27;20437;-76
2021/06/07 02:15:42;;;;;;;36.33;25.60;;;;;;;;;;5136750;27;20525;-75
2021/06/07 02:18:09;;;;;;;40.77;27.63;;;;;;;;;;5136318;27;20442;-76
2021/06/07 02:20:37;;;;;;;36.40;27.17;;;;;;;;;;5136494;27;20481;-76
2021/06/07 02:23:04;;;;;;;35.33;27.47;;;;;;;;;;5136563;27;20526;-75
2021/06/07 02:25:31;;;;;;;37.17;28.43;;;;;;;;;;5135479;27;20444;-76
2021/06/07 02:27:58;;;;;;;34.33;24.93;;;;;;;;;;5136776;27;20469;-75
2021/06/07 02:30:26;;;;;;;36.97;27.00;;;;;;;;;;5136818;27;20529;-75
2021/06/07 02:32:55;;;;;;;33.33;26.87;;;;;;;;;;5136241;27;20976;-76
2021/06/07 02:35:22;;;;;;;44.17;29.93;;;;;;;;;;5136300;27;20445;-77
2021/06/07 02:37:51;;;;;;;46.20;31.50;;;;;;;;;;5135918;27;20446;-77
2021/06/07 02:40:19;;;;;;;48.67;30.73;;;;;;;;;;5136129;27;20478;-76
2021/06/07 02:42:45;;;;;;;42.37;31.00;;;;;;;;;;5136139;27;20537;-76
2021/06/07 02:45:14;;;;;;;45.63;32.93;;;;;;;;;;5136054;27;20962;-75
2021/06/07 02:47:41;;;;;;;43.47;33.10;;;;;;;;;;5136370;27;20443;-76
2021/06/07 02:50:11;;;;;;;49.60;31.30;;;;;;;;;;5135712;27;20439;-77
2021/06/07 02:52:46;;;;;;;45.87;32.60;;;;;;;;;;5135934;27;20524;-77
2021/06/07 02:55:13;;;;;;;42.37;32.60;;;;;;;;;;5136491;27;20505;-76
2021/06/07 02:57:40;;;;;;;43.27;31.40;;;;;;;;;;5136213;27;20444;-75
2021/06/07 03:00:08;;;;;;;42.77;31.63;;;;;;;;;;5135744;27;20565;-75
2021/06/07 03:02:34;;;;;;;49.00;32.43;;;;;;;;;;5135480;27;20801;-75
2021/06/07 03:05:01;;;;;;;44.63;32.80;;;;;;;;;;5135807;27;20475;-75
2021/06/07 03:07:29;;;;;;;44.83;33.53;;;;;;;;;;5135803;27;20450;-76
2021/06/07 03:09:56;;;;;;;39.20;29.27;;;;;;;;;;5135286;27;20452;-76
2021/06/07 03:12:22;;;;;;;37.93;30.47;;;;;;;;;;5135559;27;20441;-75
2021/06/07 03:14:49;;;;;;;37.23;29.60;;;;;;;;;;5135194;27;20434;-76
2021/06/07 03:17:16;;;;;;;38.00;29.53;;;;;;;;;;5135492;27;20434;-75
2021/06/07 03:19:43;;;;;;;38.53;29.90;;;;;;;;;;5135080;27;20507;-75
2021/06/07 03:22:09;;;;;;;37.07;29.00;;;;;;;;;;5135493;27;20448;-75
2021/06/07 03:24:37;;;;;;;34.77;28.70;;;;;;;;;;5135038;27;20466;-76
2021/06/07 03:27:05;;;;;;;34.23;28.23;;;;;;;;;;5135471;27;20557;-75
2021/06/07 03:29:31;;;;;;;46.13;31.90;;;;;;;;;;5134980;27;20442;-75
2021/06/07 03:31:58;;;;;;;34.13;28.90;;;;;;;;;;5135258;27;20440;-75
2021/06/07 03:34:25;;;;;;;40.17;29.67;;;;;;;;;;5135243;27;20460;-76
2021/06/07 03:36:52;;;;;;;35.83;28.57;;;;;;;;;;5134750;27;20541;-75
2021/06/07 03:39:19;;;;;;;38.83;30.33;;;;;;;;;;5134738;27;20469;-75
2021/06/07 03:41:47;;;;;;;38.43;29.50;;;;;;;;;;5135464;27;20450;-76
2021/06/07 03:44:13;;;;;;;46.63;29.47;;;;;;;;;;5135019;27;20541;-76
2021/06/07 03:46:40;;;;;;;39.33;29.80;;;;;;;;;;5135001;27;20437;-76
2021/06/07 03:49:07;;;;;;;43.13;29.90;;;;;;;;;;5134669;27;20442;-76
2021/06/07 03:51:34;;;;;;;44.13;29.50;;;;;;;;;;5134950;27;20512;-76
2021/06/07 03:54:00;;;;;;;37.40;28.60;;;;;;;;;;5134591;27;20442;-76
2021/06/07 03:56:27;;;;;;;35.57;28.03;;;;;;;;;;5134889;27;20505;-76
2021/06/07 03:58:55;;;;;;;37.97;28.20;;;;;;;;;;5134734;27;20478;-76
2021/06/07 04:01:22;;;;;;;36.03;29.30;;;;;;;;;;5134661;27;20476;-77
2021/06/07 04:03:49;;;;;;;37.10;29.40;;;;;;;;;;5134779;27;20433;-76
2021/06/07 04:06:16;;;;;;;40.80;29.27;;;;;;;;;;5134287;27;21022;-77
2021/06/07 04:08:43;;;;;;;32.23;27.00;;;;;;;;;;5134710;27;20784;-75
2021/06/07 04:11:11;;;;;;;34.77;28.90;;;;;;;;;;5134322;27;20438;-77
2021/06/07 04:13:37;;;;;;;42.00;28.00;;;;;;;;;;5134633;27;20795;-78
2021/06/07 04:16:06;;;;;;;36.77;28.17;;;;;;;;;;5134656;28;20430;-73
2021/06/07 04:18:33;;;;;;;34.63;26.23;;;;;;;;;;5134448;28;20451;-76
2021/06/07 04:20:59;;;;;;;33.53;25.93;;;;;;;;;;5134553;28;20439;-76
2021/06/07 04:23:26;;;;;;;31.87;27.67;;;;;;;;;;5134220;28;20466;-76
2021/06/07 04:25:53;;;;;;;34.30;27.40;;;;;;;;;;5134996;28;20433;-76
2021/06/07 04:28:19;;;;;;;28.47;25.33;;;;;;;;;;5134350;28;20557;-74
2021/06/07 04:30:46;;;;;;;31.30;27.70;;;;;;;;;;5124545;28;20476;-75
2021/06/07 04:33:14;;;;;;;28.93;24.57;;;;;;;;;;5115263;28;20852;-74
2021/06/07 04:35:41;;;;;;;36.57;27.50;;;;;;;;;;5113845;28;20441;-74
2021/06/07 04:38:08;;;;;;;35.27;26.40;;;;;;;;;;5114046;28;20544;-74
2021/06/07 04:40:35;;;;;;;33.47;26.37;;;;;;;;;;5113603;28;20477;-74
2021/06/07 04:43:05;;;;;;;32.37;26.30;;;;;;;;;;5113811;28;20439;-75
2021/06/07 04:45:32;;;;;;;43.10;27.60;;;;;;;;;;5113579;28;20429;-76
2021/06/07 04:47:59;;;;;;;44.23;28.37;;;;;;;;;;5113709;28;20527;-76
2021/06/07 04:50:28;;;;;;;33.50;26.10;;;;;;;;;;5117290;28;20593;-75
2021/06/07 04:52:59;;;;;;;31.10;26.47;;;;;;;;;;5118303;28;20512;-76
2021/06/07 04:55:27;;;;;;;31.43;25.70;;;;;;;;;;5117928;28;20503;-75
2021/06/07 04:57:54;;;;;;;34.50;26.03;;;;;;;;;;5117705;28;20488;-75
2021/06/07 05:00:23;;;;;;;31.47;26.57;;;;;;;;;;5116927;28;20987;-76
2021/06/07 05:02:50;;;;;;;29.60;25.10;;;;;;;;;;5117494;28;20443;-77
2021/06/07 05:05:17;;;;;;;29.93;24.00;;;;;;;;;;5117379;28;20442;-76
2021/06/07 05:07:45;;;;;;;31.50;25.53;;;;;;;;;;5118026;28;20449;-76
2021/06/07 05:10:12;;;;;;;36.40;24.70;;;;;;;;;;5117421;28;20439;-77
2021/06/07 05:12:39;;;;;;;31.87;24.23;;;;;;;;;;5117401;28;20439;-76
2021/06/07 05:15:15;;;;;;;30.10;26.17;;;;;;;;;;5116997;28;20461;-75
2021/06/07 05:17:43;;;;;;;28.90;23.90;;;;;;;;;;5116940;28;20423;-76
2021/06/07 05:20:10;;;;;;;35.20;25.33;;;;;;;;;;5117036;28;20478;-76
2021/06/07 05:22:37;;;;;;;32.20;25.87;;;;;;;;;;5117409;28;20439;-74
2021/06/07 05:25:06;;;;;;;34.47;25.33;;;;;;;;;;5117435;28;20450;-75
2021/06/07 05:27:33;;;;;;;29.43;23.17;;;;;;;;;;5117357;28;20866;-75
2021/06/07 05:30:01;;;;;;;28.80;24.00;;;;;;;;;;5116699;28;20496;-74
2021/06/07 05:32:28;;;;;;;26.50;23.70;;;;;;;;;;5116995;28;20435;-75
2021/06/07 05:34:55;;;;;;;31.93;24.80;;;;;;;;;;5121349;27;20439;-75
2021/06/07 05:37:22;;;;;;;34.80;25.93;;;;;;;;;;5130940;27;20951;-75
2021/06/07 05:39:49;;;;;;;29.33;25.03;;;;;;;;;;5137178;27;20480;-75
2021/06/07 05:42:17;;;;;;;25.13;22.40;;;;;;;;;;5136400;27;20919;-76
2021/06/07 05:44:43;;;;;;;32.00;24.50;;;;;;;;;;5137187;27;20530;-75
2021/06/07 05:47:10;;;;;;;38.73;23.13;;;;;;;;;;5136569;27;20531;-73
2021/06/07 05:49:38;;;;;;;29.37;24.03;;;;;;;;;;5137298;27;20453;-81
2021/06/07 05:52:06;;;;;;;25.20;22.50;;;;;;;;;;5136873;27;20434;-80
2021/06/07 05:54:32;;;;;;;27.37;24.33;;;;;;;;;;5136841;27;20429;-80
2021/06/07 05:56:59;;;;;;;30.03;22.70;;;;;;;;;;5137026;27;20447;-81
2021/06/07 05:59:27;;;;;;;29.37;24.87;;;;;;;;;;5136423;27;20466;-80
2021/06/07 06:01:55;;;;;;;31.00;23.97;;;;;;;;;;5136803;27;20438;-80
2021/06/07 06:04:22;;;;;;;28.60;23.90;;;;;;;;;;5136884;27;20470;-82
2021/06/07 06:06:49;;;;;;;31.57;25.17;;;;;;;;;;5136852;27;20910;-81
2021/06/07 06:09:15;;;;;;;30.90;24.20;;;;;;;;;;5137131;27;20494;-82
2021/06/07 06:11:42;;;;;;;28.57;23.40;;;;;;;;;;5136943;27;20436;-81
2021/06/07 06:14:09;;;;;;;27.20;24.30;;;;;;;;;;5136711;27;20434;-81
2021/06/07 06:16:37;;;;;;;36.27;25.17;;;;;;;;;;5136667;27;20440;-80
2021/06/07 06:19:05;;;;;;;29.60;22.40;;;;;;;;;;5136560;27;20485;-81
2021/06/07 06:21:33;;;;;;;26.83;23.43;;;;;;;;;;5137410;27;20437;-80
2021/06/07 06:24:00;;;;;;;32.53;24.07;;;;;;;;;;5136668;27;20443;-79
2021/06/07 06:26:27;;;;;;;28.23;24.93;;;;;;;;;;5136343;27;20434;-79
2021/06/07 06:28:53;;;;;;;28.13;23.00;;;;;;;;;;5137045;27;20440;-80
2021/06/07 06:31:20;;;;;;;29.10;22.77;;;;;;;;;;5136374;27;20444;-80
2021/06/07 06:33:48;;;;;;;26.30;23.20;;;;;;;;;;5136303;27;20541;-80
2021/06/07 06:36:15;;;;;;;25.50;22.77;;;;;;;;;;5135826;27;20445;-80
2021/06/07 06:38:42;;;;;;;30.00;23.00;;;;;;;;;;5136211;27;20430;-81
2021/06/07 06:41:09;;;;;;;23.33;19.97;;;;;;;;;;5136087;27;20486;-81
2021/06/07 06:43:35;;;;;;;27.47;19.70;;;;;;;;;;5136796;27;20728;-81
2021/06/07 06:46:02;;;;;;;21.07;18.60;;;;;;;;;;5135946;27;20533;-81
2021/06/07 06:48:32;;;;;;;24.57;20.20;;;;;;;;;;5136091;27;20431;-80
2021/06/07 06:51:01;;;;;;;24.90;21.53;;;;;;;;;;5136239;27;20788;-81
2021/06/07 06:53:27;;;;;;;21.13;17.67;;;;;;;;;;5135498;27;20455;-81
2021/06/07 06:56:00;;;;;;;29.07;20.30;;;;;;;;;;5135964;27;20438;-81
2021/06/07 06:58:27;;;;;;;19.57;17.47;;;;;;;;;;5136360;27;20460;-81
2021/06/07 07:00:53;;;;;;;22.07;18.40;;;;;;;;;;5135858;27;20522;-81
2021/06/07 07:03:21;;;;;;;20.80;17.57;;;;;;;;;;5135363;27;20524;-81
2021/06/07 07:05:48;;;;;;;18.83;16.93;;;;;;;;;;5135693;27;20435;-81
2021/06/07 07:08:19;;;;;;;20.80;17.53;;;;;;;;;;5136032;27;20452;-80
2021/06/07 07:10:46;;;;;;;19.90;17.80;;;;;;;;;;5135147;27;20935;-80
2021/06/07 07:13:13;;;;;;;21.83;18.03;;;;;;;;;;5135297;27;20462;-80
2021/06/07 07:15:40;;;;;;;20.90;17.57;;;;;;;;;;5135263;27;20938;-79
2021/06/07 07:18:07;;;;;;;18.40;16.40;;;;;;;;;;5135651;27;20452;-80
2021/06/07 07:20:35;;;;;;;19.23;16.47;;;;;;;;;;5135561;27;20470;-80
2021/06/07 07:23:02;;;;;;;20.17;17.33;;;;;;;;;;5137417;27;20489;-80
2021/06/07 07:25:30;;;;;;;20.47;18.43;;;;;;;;;;5150068;27;20438;-79
2021/06/07 07:27:57;;;;;;;18.07;16.07;;;;;;;;;;5143116;27;20557;-80
2021/06/07 07:30:26;;;;;;;19.50;17.37;;;;;;;;;;5140211;27;20444;-80
2021/06/07 07:32:54;;;;;;;20.50;16.50;;;;;;;;;;5136050;27;20439;-80
2021/06/07 07:35:22;;;;;;;21.03;14.97;;;;;;;;;;5140388;27;20439;-81
2021/06/07 07:37:49;;;;;;;20.47;16.70;;;;;;;;;;5146553;27;20473;-80
2021/06/07 07:40:17;;;;;;;19.03;15.67;;;;;;;;;;5137817;27;20530;-79
2021/06/07 07:42:45;;;;;;;23.83;16.50;;;;;;;;;;5136911;27;20439;-80
2021/06/07 07:45:12;;;;;;;18.43;16.40;;;;;;;;;;5136496;27;20452;-80
2021/06/07 07:47:39;;;;;;;18.83;15.97;;;;;;;;;;5139757;27;20468;-79
2021/06/07 07:50:07;;;;;;;18.70;16.80;;;;;;;;;;5139510;27;20530;-80
2021/06/07 07:52:34;;;;;;;18.40;15.13;;;;;;;;;;5140437;27;20437;-80
2021/06/07 07:55:01;;;;;;;18.30;16.33;;;;;;;;;;5142433;27;20466;-80
2021/06/07 07:57:28;;;;;;;19.00;15.13;;;;;;;;;;5144857;27;20872;-79
2021/06/07 07:59:56;;;;;;;17.53;15.57;;;;;;;;;;5143448;27;20570;-80
2021/06/07 08:02:22;;;;;;;19.93;16.50;;;;;;;;;;5144661;27;20443;-79
2021/06/07 08:04:49;;;;;;;16.23;14.70;;;;;;;;;;5138037;27;20513;-80
2021/06/07 08:07:16;;;;;;;20.67;16.10;;;;;;;;;;5141028;27;20460;-80
2021/06/07 08:09:43;;;;;;;20.20;15.40;;;;;;;;;;5139402;27;20974;-80
2021/06/07 08:12:10;;;;;;;20.17;18.10;;;;;;;;;;5137183;27;20438;-79
2021/06/07 08:14:36;;;;;;;20.47;15.60;;;;;;;;;;5138973;27;20469;-81
2021/06/07 08:17:05;;;;;;;19.73;15.40;;;;;;;;;;5136807;27;20438;-80
2021/06/07 08:19:31;;;;;;;22.43;16.90;;;;;;;;;;5135174;28;20561;-81
2021/06/07 08:21:58;;;;;;;21.40;15.77;;;;;;;;;;5135350;28;20445;-81
2021/06/07 08:24:25;;;;;;;17.67;15.93;;;;;;;;;;5138894;27;20528;-81
2021/06/07 08:26:51;;;;;;;21.13;14.80;;;;;;;;;;5139928;27;20548;-80
2021/06/07 08:29:18;;;;;;;17.93;15.30;;;;;;;;;;5138621;27;20528;-80
2021/06/07 08:31:45;;;;;;;24.30;16.70;;;;;;;;;;5138923;27;20534;-80
2021/06/07 08:34:13;;;;;;;15.83;14.30;;;;;;;;;;5138716;27;20440;-81
2021/06/07 08:36:40;;;;;;;16.73;14.90;;;;;;;;;;5139134;27;20444;-81
2021/06/07 08:39:08;;;;;;;17.60;14.37;;;;;;;;;;5138845;27;20537;-81
2021/06/07 08:41:35;;;;;;;15.63;14.03;;;;;;;;;;5138927;27;20442;-81
2021/06/07 08:44:02;;;;;;;16.10;13.67;;;;;;;;;;5138253;27;20433;-80
2021/06/07 08:46:29;;;;;;;15.20;13.03;;;;;;;;;;5138517;27;20434;-82
2021/06/07 08:48:55;;;;;;;15.73;14.00;;;;;;;;;;5138460;27;20442;-80
2021/06/07 08:51:24;;;;;;;13.90;12.50;;;;;;;;;;5138670;27;20495;-80
2021/06/07 08:53:54;;;;;;;15.83;13.90;;;;;;;;;;5138715;27;20452;-81
2021/06/07 08:56:23;;;;;;;14.90;13.40;;;;;;;;;;5138813;27;20512;-80
2021/06/07 08:58:50;;;;;;;15.80;13.70;;;;;;;;;;5138310;27;20935;-80
2021/06/07 09:01:17;;;;;;;15.30;13.80;;;;;;;;;;5137797;27;20516;-80
2021/06/07 09:03:44;;;;;;;20.10;14.77;;;;;;;;;;5137941;27;20434;-80
2021/06/07 09:06:11;;;;;;;18.20;14.27;;;;;;;;;;5138370;27;20434;-80
2021/06/07 09:08:40;;;;;;;18.10;13.40;;;;;;;;;;5138137;27;20469;-80
2021/06/07 09:11:08;;;;;;;15.63;12.07;;;;;;;;;;5138046;27;20446;-80
2021/06/07 09:13:36;;;;;;;15.33;12.87;;;;;;;;;;5138161;27;20524;-81
2021/06/07 09:16:04;;;;;;;14.90;13.47;;;;;;;;;;5138635;27;20434;-80
2021/06/07 09:18:33;;;;;;;15.00;13.50;;;;;;;;;;5138265;27;20465;-80
2021/06/07 09:21:03;;;;;;;14.27;11.97;;;;;;;;;;5137873;27;20560;-80
2021/06/07 09:23:44;;;;;;;19.23;12.83;;;;;;;;;;5138187;27;20571;-80
2021/06/07 09:26:25;;;;;;;14.43;12.93;;;;;;;;;;5138438;27;20456;-81
2021/06/07 09:28:54;;;;;;;15.20;12.63;;;;;;;;;;5138287;27;20453;-81
2021/06/07 09:31:26;;;;;;;14.73;13.10;;;;;;;;;;5137580;27;20449;-80
2021/06/07 09:33:53;;;;;;;16.13;11.30;;;;;;;;;;5137759;27;20507;-81
2021/06/07 09:36:23;;;;;;;16.33;12.50;;;;;;;;;;5137569;27;20474;-81
2021/06/07 09:39:10;;;;;;;14.50;12.50;;;;;;;;;;5137800;27;20427;-81
2021/06/07 09:41:55;;;;;;;13.47;12.10;;;;;;;;;;5137709;27;20422;-81
2021/06/07 09:44:34;;;;;;;23.13;15.73;;;;;;;;;;5138333;27;20441;-81
2021/06/07 09:47:17;;;;;;;13.40;10.83;;;;;;;;;;5137851;27;20427;-81
2021/06/07 09:49:45;;;;;;;14.87;13.37;;;;;;;;;;5139116;27;20520;-82
2021/06/07 09:52:13;;;;;;;13.10;11.80;;;;;;;;;;5138874;27;20476;-81
2021/06/07 09:54:45;;;;;;;16.00;12.90;;;;;;;;;;5137661;27;20435;-80
2021/06/07 09:57:13;;;;;;;15.33;13.83;;;;;;;;;;5137366;27;20426;-80
2021/06/07 09:59:44;;;;;;;15.03;12.60;;;;;;;;;;5136899;27;20469;-80
2021/06/07 10:02:15;;;;;;;21.47;12.50;;;;;;;;;;5137852;27;20814;-81
2021/06/07 10:04:53;;;;;;;14.20;11.40;;;;;;;;;;5137090;27;20950;-81
2021/06/07 10:07:20;;;;;;;13.47;12.17;;;;;;;;;;5136758;27;20449;-81
2021/06/07 10:10:06;;;;;;;13.30;11.90;;;;;;;;;;5138810;27;20485;-80
2021/06/07 10:12:32;;;;;;;14.63;13.10;;;;;;;;;;5139994;27;20528;-79
2021/06/07 10:15:00;;;;;;;14.60;12.33;;;;;;;;;;5138720;27;20525;-80
2021/06/07 10:17:27;;;;;;;13.30;11.90;;;;;;;;;;5141489;27;20438;-84
2021/06/07 10:20:46;;;;;;;12.70;11.60;;;;;;;;;;5141379;27;20509;-82
2021/06/07 10:22:46;;;;;;;12.30;11.10;;;;;;;;;;5142425;27;20453;-81
2021/06/07 10:25:13;;;;;;;21.53;12.50;;;;;;;;;;5140698;27;20484;-80
2021/06/07 10:27:40;;;;;;;11.97;10.87;;;;;;;;;;5140858;27;20989;-81
2021/06/07 10:30:16;;;;;;;12.97;11.30;;;;;;;;;;5143237;27;20444;-81
2021/06/07 10:32:42;;;;;;;13.40;12.00;;;;;;;;;;5141447;27;20439;-82
2021/06/07 10:35:10;;;;;;;12.93;11.40;;;;;;;;;;5141954;27;20550;-81
2021/06/07 10:37:56;;;;;;;13.20;11.90;;;;;;;;;;5138183;27;20517;-81
2021/06/07 10:40:24;;;;;;;11.60;10.60;;;;;;;;;;5138660;27;20470;-81
2021/06/07 10:42:53;;;;;;;13.07;11.70;;;;;;;;;;5137465;27;20535;-81
2021/06/07 10:45:23;;;;;;;15.57;10.93;;;;;;;;;;5136587;27;20488;-80
2021/06/07 10:47:50;;;;;;;11.50;10.50;;;;;;;;;;5134953;27;21043;-81
2021/06/07 10:50:19;;;;;;;13.43;12.13;;;;;;;;;;5137338;27;20438;-81
2021/06/07 10:52:54;;;;;;;13.47;12.17;;;;;;;;;;5135974;27;20459;-80
2021/06/07 10:55:24;;;;;;;12.70;11.60;;;;;;;;;;5137943;27;20431;-82
2021/06/07 10:57:52;;;;;;;12.43;11.27;;;;;;;;;;5140187;27;20747;-81
2021/06/07 11:00:38;;;;;;;13.00;11.70;;;;;;;;;;5136595;27;20483;-81
2021/06/07 11:03:06;;;;;;;11.83;10.63;;;;;;;;;;5136078;27;20522;-81
2021/06/07 11:05:33;;;;;;;17.20;10.73;;;;;;;;;;5137138;27;20782;-83
2021/06/07 11:08:01;;;;;;;11.47;10.37;;;;;;;;;;5136890;27;20449;-82
2021/06/07 11:10:29;;;;;;;14.33;10.87;;;;;;;;;;5135561;27;20435;-80
2021/06/07 11:12:56;;;;;;;13.60;12.13;;;;;;;;;;5135122;27;21007;-82
2021/06/07 11:15:24;;;;;;;13.90;11.03;;;;;;;;;;5136036;27;20442;-79
2021/06/07 11:17:53;;;;;;;16.17;14.57;;;;;;;;;;5135680;27;20441;-82
2021/06/07 11:20:33;;;;;;;13.33;11.47;;;;;;;;;;5134990;27;20520;-82
2021/06/07 11:23:04;;;;;;;12.27;10.80;;;;;;;;;;5135066;27;20481;-82
2021/06/07 11:25:31;;;;;;;12.77;11.57;;;;;;;;;;5135350;27;20499;-81
2021/06/07 11:27:57;;;;;;;12.03;10.80;;;;;;;;;;5136166;27;20476;-82
2021/06/07 11:30:24;;;;;;;11.27;10.27;;;;;;;;;;5135294;27;20446;-82
2021/06/07 11:33:05;;;;;;;11.00;10.00;;;;;;;;;;5134886;27;20479;-82
2021/06/07 11:35:41;;;;;;;12.13;10.93;;;;;;;;;;5134969;27;20520;-82
2021/06/07 11:38:29;;;;;;;12.13;11.03;;;;;;;;;;5135550;27;20443;-83
2021/06/07 11:40:56;;;;;;;13.27;12.07;;;;;;;;;;5128320;27;20686;-81
2021/06/07 11:43:37;;;;;;;14.70;11.23;;;;;;;;;;5135246;27;20790;-81
2021/06/07 11:46:04;;;;;;;11.37;10.37;;;;;;;;;;5134113;27;20443;-82
2021/06/07 11:48:46;;;;;;;11.10;10.00;;;;;;;;;;5135510;27;20899;-81
2021/06/07 11:51:31;;;;;;;12.47;11.30;;;;;;;;;;5133873;27;20449;-81
2021/06/07 11:53:58;;;;;;;10.80;9.80;;;;;;;;;;5134540;27;20549;-83
2021/06/07 11:56:24;;;;;;;13.20;10.57;;;;;;;;;;5134841;27;20448;-82
2021/06/07 11:58:53;;;;;;;10.73;9.73;;;;;;;;;;5135549;27;20436;-83
2021/06/07 12:01:20;;;;;;;11.10;10.07;;;;;;;;;;5134279;27;20475;-80
2021/06/07 12:03:47;;;;;;;11.30;10.20;;;;;;;;;;5134398;27;20994;-83
2021/06/07 12:06:13;;;;;;;11.00;9.90;;;;;;;;;;5134312;27;20456;-80
2021/06/07 12:08:41;;;;;;;13.60;12.30;;;;;;;;;;5134715;27;20440;-81
2021/06/07 12:11:16;;;;;;;13.07;11.67;;;;;;;;;;5135453;27;20440;-81
2021/06/07 12:13:45;;;;;;;11.07;10.13;;;;;;;;;;5134470;27;20503;-81
2021/06/07 12:16:15;;;;;;;10.07;9.03;;;;;;;;;;5134655;27;20440;-83
2021/06/07 12:18:42;;;;;;;12.43;9.37;;;;;;;;;;5134252;28;20478;-80
2021/06/07 12:21:21;;;;;;;12.37;10.60;;;;;;;;;;5134496;28;20483;-84
2021/06/07 12:23:56;;;;;;;11.30;9.90;;;;;;;;;;5134633;28;20938;-80
2021/06/07 12:29:33;;;;;;;11.20;10.07;;;;;;;;;;5134397;28;20428;-81
2021/06/07 12:32:10;;;;;;;9.87;8.43;;;;;;;;;;5134510;28;20457;-81
2021/06/07 12:34:38;;;;;;;8.73;7.83;;;;;;;;;;5135101;28;20515;-80
2021/06/07 12:37:05;;;;;;;9.80;8.90;;;;;;;;;;5134866;28;20444;-81
2021/06/07 12:39:33;;;;;;;8.83;7.87;;;;;;;;;;5134241;28;20451;-81
2021/06/07 12:42:00;;;;;;;8.30;7.53;;;;;;;;;;5133981;28;20439;-81
2021/06/07 12:44:27;;;;;;;7.07;6.47;;;;;;;;;;5133912;28;20922;-81
2021/06/07 12:46:55;;;;;;;8.50;7.80;;;;;;;;;;5134187;28;20497;-74
2021/06/07 12:49:22;;;;;;;9.53;7.93;;;;;;;;;;5133866;28;20967;-75
2021/06/07 12:51:56;;;;;;;10.57;8.50;;;;;;;;;;5133975;28;20570;-77
2021/06/07 12:54:23;;;;;;;15.77;9.03;;;;;;;;;;5133780;28;20429;-78
2021/06/07 12:56:52;;;;;;;10.47;8.77;;;;;;;;;;5133988;28;20464;-79
2021/06/07 12:59:18;;;;;;;8.70;7.90;;;;;;;;;;5134571;28;20451;-79
2021/06/07 13:01:47;;;;;;;8.20;7.50;;;;;;;;;;5134022;28;20910;-79
2021/06/07 13:04:16;;;;;;;9.30;8.40;;;;;;;;;;5134253;28;20449;-80
2021/06/07 13:06:44;;;;;;;10.00;8.63;;;;;;;;;;5134342;28;20811;-78
2021/06/07 13:09:12;;;;;;;9.43;7.83;;;;;;;;;;5134223;27;20441;-79
2021/06/07 13:11:39;;;;;;;8.17;7.00;;;;;;;;;;5136108;27;20457;-78
2021/06/07 13:14:09;;;;;;;9.60;8.70;;;;;;;;;;5126679;27;20504;-78
2021/06/07 13:16:37;;;;;;;8.80;8.00;;;;;;;;;;5117133;28;20509;-78
2021/06/07 13:19:06;;;;;;;9.43;8.63;;;;;;;;;;5117258;28;20466;-78
2021/06/07 13:21:45;;;;;;;9.20;8.03;;;;;;;;;;5117169;28;20480;-77
2021/06/07 13:24:12;;;;;;;8.03;7.33;;;;;;;;;;5116855;28;20453;-79
2021/06/07 13:26:57;;;;;;;9.13;7.33;;;;;;;;;;5117001;28;20454;-78
2021/06/07 13:29:27;;;;;;;8.43;7.63;;;;;;;;;;5117214;28;20429;-79
2021/06/07 13:32:12;;;;;;;8.40;6.67;;;;;;;;;;5116838;28;20521;-78
2021/06/07 13:34:41;;;;;;;7.60;7.00;;;;;;;;;;5116182;28;20450;-77
2021/06/07 13:37:10;;;;;;;8.90;8.00;;;;;;;;;;5116524;28;20445;-77
2021/06/07 13:39:37;;;;;;;9.47;8.53;;;;;;;;;;5116639;28;20816;-76
2021/06/07 13:42:04;;;;;;;9.17;8.37;;;;;;;;;;5116312;28;20474;-77
2021/06/07 13:44:45;;;;;;;9.27;8.37;;;;;;;;;;5116974;28;20523;-76
2021/06/07 13:47:18;;;;;;;9.73;8.93;;;;;;;;;;5116130;28;20512;-77
2021/06/07 13:49:45;;;;;;;8.97;8.17;;;;;;;;;;5116443;28;20518;-78
2021/06/07 13:52:15;;;;;;;8.37;7.57;;;;;;;;;;5116532;28;20471;-76
2021/06/07 13:55:03;;;;;;;8.23;7.53;;;;;;;;;;5115960;28;20526;-76
2021/06/07 13:57:29;;;;;;;9.00;8.20;;;;;;;;;;5111523;28;20941;-78
2021/06/07 13:59:56;;;;;;;9.50;8.27;;;;;;;;;;5116268;28;20533;-78
2021/06/07 14:02:24;;;;;;;17.17;9.10;;;;;;;;;;5115697;28;20443;-77
2021/06/07 14:04:51;;;;;;;9.20;8.40;;;;;;;;;;5115986;28;20432;-79
2021/06/07 14:07:17;;;;;;;8.73;8.07;;;;;;;;;;5116011;28;20869;-78
2021/06/07 14:09:44;;;;;;;10.80;9.50;;;;;;;;;;5115630;28;20529;-77
2021/06/07 14:12:11;;;;;;;8.90;8.17;;;;;;;;;;5116321;28;20525;-77
2021/06/07 14:14:38;;;;;;;9.83;9.03;;;;;;;;;;5115873;28;20806;-77
2021/06/07 14:17:05;;;;;;;10.97;9.97;;;;;;;;;;5116410;28;20781;-76
2021/06/07 14:19:33;;;;;;;10.73;9.67;;;;;;;;;;5115605;28;20447;-79
2021/06/07 14:24:45;;;;;;;9.47;8.67;;;;;;;;;;5115440;28;20556;-79
2021/06/07 14:27:12;;;;;;;10.40;9.50;;;;;;;;;;5115837;28;20472;-78
2021/06/07 14:29:40;;;;;;;11.60;9.40;;;;;;;;;;5115678;28;20444;-78
2021/06/07 14:32:07;;;;;;;10.47;9.30;;;;;;;;;;5115201;28;20457;-77
2021/06/07 14:34:35;;;;;;;12.63;10.27;;;;;;;;;;5115209;28;20433;-77